createdAt,value
2019-03-11T00:05:06.007Z,3.27
2019-03-11T00:16:04.065Z,3.27
2019-03-11T00:27:05.000Z,3.27
2019-03-11T00:38:04.004Z,3.26
2019-03-11T00:49:01.498Z,3.26
2019-03-11T01:00:05.281Z,3.26
2019-03-11T01:11:06.639Z,3.26
2019-03-11T01:22:06.212Z,3.26
2019-03-11T01:33:06.355Z,3.26
2019-03-11T01:44:04.829Z,3.25
2019-03-11T01:55:02.831Z,3.25
2019-03-11T02:06:04.239Z,3.25
2019-03-11T02:17:02.882Z,3.25
2019-03-11T02:28:06.993Z,3.25
2019-03-11T02:39:09.057Z,3.24
2019-03-11T02:49:45.972Z,3.23
2019-03-11T03:00:43.059Z,3.23
2019-03-11T03:11:42.829Z,3.22
2019-03-11T03:22:40.157Z,3.22
2019-03-11T03:33:40.260Z,3.22
2019-03-11T03:44:38.332Z,3.22
2019-03-11T03:55:35.071Z,3.21
2019-03-11T04:06:25.899Z,3.21
2019-03-11T04:17:14.405Z,3.20
2019-03-11T04:28:07.874Z,3.20
2019-03-11T04:39:11.531Z,3.19
2019-03-11T04:50:08.387Z,3.19
2019-03-11T05:01:12.340Z,3.19
2019-03-11T05:12:12.376Z,3.19
2019-03-11T05:23:11.039Z,3.18
2019-03-11T05:33:57.058Z,3.18
2019-03-11T05:44:36.409Z,3.18
2019-03-11T05:55:16.424Z,3.19
2019-03-11T06:05:57.842Z,3.19
2019-03-11T06:16:39.702Z,3.19
2019-03-11T06:27:24.122Z,3.19
2019-03-11T06:38:09.442Z,3.19
2019-03-11T06:48:51.962Z,3.20
2019-03-11T06:59:37.170Z,3.21
2019-03-11T07:10:18.127Z,3.22
2019-03-11T07:20:59.790Z,3.23
2019-03-11T07:31:44.123Z,3.24
2019-03-11T07:42:24.525Z,3.25
2019-03-11T07:53:17.128Z,3.24
2019-03-11T08:04:01.810Z,3.29
2019-03-11T08:14:43.279Z,3.30
2019-03-11T08:25:20.967Z,3.30
2019-03-11T08:36:02.569Z,3.30
2019-03-11T08:46:44.846Z,3.32
2019-03-11T08:57:29.537Z,3.33
2019-03-11T09:08:15.195Z,3.34
2019-03-11T09:18:56.288Z,3.37
2019-03-11T09:29:22.812Z,3.39
2019-03-11T09:40:03.620Z,3.42
2019-03-11T09:50:44.262Z,3.38
2019-03-11T10:01:29.302Z,3.37
2019-03-11T10:12:09.125Z,3.39
2019-03-11T10:22:50.949Z,3.38
2019-03-11T10:33:35.904Z,3.38
2019-03-11T10:44:16.183Z,3.39
2019-03-11T10:54:52.747Z,3.39
2019-03-11T11:05:39.182Z,3.40
2019-03-11T11:16:16.253Z,3.39
2019-03-11T11:26:55.891Z,3.39
2019-03-11T11:37:37.841Z,3.41
2019-03-11T11:48:21.216Z,3.41
2019-03-11T11:59:03.394Z,3.40
2019-03-11T12:09:43.283Z,3.39
2019-03-11T12:20:21.564Z,3.40
2019-03-11T12:30:59.905Z,3.39
2019-03-11T12:41:36.218Z,3.39
2019-03-11T12:52:31.386Z,3.39
2019-03-11T13:03:31.090Z,3.39
2019-03-11T13:14:29.391Z,3.39
2019-03-11T13:25:28.677Z,3.39
2019-03-11T13:36:31.440Z,3.39
2019-03-11T13:47:28.600Z,3.39
2019-03-11T13:58:33.057Z,3.42
2019-03-11T14:09:35.343Z,3.40
2019-03-11T14:20:36.993Z,3.40
2019-03-11T14:31:40.467Z,3.40
2019-03-11T14:42:38.033Z,3.42
2019-03-11T14:53:38.932Z,3.40
2019-03-11T15:04:41.495Z,3.42
2019-03-11T15:15:38.697Z,3.42
2019-03-11T15:26:41.448Z,3.42
2019-03-11T15:37:40.575Z,3.42
2019-03-11T15:48:38.218Z,3.42
2019-03-11T15:59:41.978Z,3.41
2019-03-11T16:10:40.384Z,3.40
2019-03-11T16:21:39.961Z,3.39
2019-03-11T16:32:37.323Z,3.38
2019-03-11T16:43:38.115Z,3.37
2019-03-11T16:54:39.726Z,3.36
2019-03-11T17:05:42.950Z,3.36
2019-03-11T17:16:41.649Z,3.35
2019-03-11T17:27:39.118Z,3.34
2019-03-11T17:38:37.532Z,3.34
2019-03-11T17:49:33.595Z,3.33
2019-03-11T18:00:30.873Z,3.33
2019-03-11T18:11:23.194Z,3.32
2019-03-11T18:22:20.455Z,3.32
2019-03-11T18:33:17.274Z,3.32
2019-03-11T18:44:09.367Z,3.31
2019-03-11T18:55:03.424Z,3.30
2019-03-11T19:06:02.083Z,3.30
2019-03-11T19:16:55.818Z,3.30
2019-03-11T19:27:57.009Z,3.30
2019-03-11T19:38:56.016Z,3.29
2019-03-11T19:49:52.539Z,3.29
2019-03-11T20:00:55.916Z,3.29
2019-03-11T20:11:54.841Z,3.29
2019-03-11T20:22:46.994Z,3.28
2019-03-11T20:33:50.283Z,3.28
2019-03-11T20:44:28.869Z,3.27
2019-03-11T20:55:20.380Z,3.27
2019-03-11T21:06:20.095Z,3.26
2019-03-11T21:17:25.206Z,3.26
2019-03-11T21:28:19.016Z,3.26
2019-03-11T21:39:19.070Z,3.25
2019-03-11T21:50:15.843Z,3.25
2019-03-11T22:01:13.885Z,3.25
2019-03-11T22:12:00.525Z,3.25
2019-03-11T22:22:55.871Z,3.25
2019-03-11T22:33:53.118Z,3.24
2019-03-11T22:44:44.193Z,3.23
2019-03-11T22:55:44.292Z,3.23
2019-03-11T23:06:48.380Z,3.23
2019-03-11T23:17:46.247Z,3.23
2019-03-11T23:28:45.644Z,3.22
2019-03-11T23:39:39.801Z,3.22
2019-03-11T23:50:33.738Z,3.22
